createdAt,value
2018-09-28T00:00:04.775Z,70.10
2018-09-28T00:00:35.816Z,70.10
2018-09-28T00:01:06.869Z,70.10
2018-09-28T00:01:37.936Z,70.70
2018-09-28T00:02:08.971Z,70.10
2018-09-28T00:02:40.019Z,70.10
2018-09-28T00:03:11.063Z,70.10
2018-09-28T00:03:42.111Z,70.10
2018-09-28T00:04:13.158Z,70.10
2018-09-28T00:04:44.199Z,70.00
2018-09-28T00:05:15.247Z,70.00
2018-09-28T00:05:46.291Z,70.00
2018-09-28T00:06:17.339Z,70.00
2018-09-28T00:06:48.396Z,70.10
2018-09-28T00:07:19.439Z,70.20
2018-09-28T00:07:50.488Z,70.20
2018-09-28T00:08:21.534Z,70.20
2018-09-28T00:08:52.616Z,70.20
2018-09-28T00:09:23.650Z,70.30
2018-09-28T00:09:54.699Z,70.30
2018-09-28T00:10:25.751Z,70.30
2018-09-28T00:10:56.791Z,70.30
2018-09-28T00:11:27.840Z,70.30
2018-09-28T00:11:58.890Z,70.30
2018-09-28T00:12:29.957Z,70.30
2018-09-28T00:13:00.991Z,70.20
2018-09-28T00:13:32.030Z,70.20
2018-09-28T00:14:03.080Z,70.20
2018-09-28T00:14:34.119Z,70.10
2018-09-28T00:15:05.159Z,70.00
2018-09-28T00:15:36.203Z,70.00
2018-09-28T00:16:07.248Z,70.00
2018-09-28T00:16:38.319Z,70.00
2018-09-28T00:17:09.355Z,70.00
2018-09-28T00:17:40.495Z,70.00
2018-09-28T00:18:11.541Z,69.90
2018-09-28T00:18:42.588Z,69.90
2018-09-28T00:19:13.635Z,69.90
2018-09-28T00:19:44.682Z,69.90
2018-09-28T00:20:15.740Z,69.90
2018-09-28T00:20:46.780Z,69.90
2018-09-28T00:21:17.818Z,69.80
2018-09-28T00:21:48.880Z,69.80
2018-09-28T00:22:19.923Z,69.70
2018-09-28T00:22:50.963Z,69.70
2018-09-28T00:23:22.015Z,69.70
2018-09-28T00:23:53.062Z,69.80
2018-09-28T00:24:24.187Z,69.70
2018-09-28T00:24:55.239Z,69.80
2018-09-28T00:25:26.287Z,69.70
2018-09-28T00:25:57.383Z,69.70
2018-09-28T00:26:28.381Z,70.60
2018-09-28T00:26:59.432Z,69.70
2018-09-28T00:27:30.480Z,69.70
2018-09-28T00:28:01.516Z,69.70
2018-09-28T00:28:32.556Z,69.70
2018-09-28T00:29:03.608Z,69.80
2018-09-28T00:29:34.652Z,69.70
2018-09-28T00:30:05.700Z,69.70
2018-09-28T00:30:36.754Z,69.80
2018-09-28T00:31:07.794Z,69.80
2018-09-28T00:31:38.839Z,69.90
2018-09-28T00:32:09.903Z,69.90
2018-09-28T00:32:40.984Z,69.90
2018-09-28T00:33:11.990Z,69.90
2018-09-28T00:33:43.034Z,69.90
2018-09-28T00:34:14.082Z,70.00
2018-09-28T00:34:45.133Z,69.90
2018-09-28T00:35:16.167Z,70.00
2018-09-28T00:35:47.217Z,70.00
2018-09-28T00:36:18.256Z,70.00
2018-09-28T00:36:49.307Z,70.00
2018-09-28T00:37:20.470Z,70.00
2018-09-28T00:37:51.596Z,70.00
2018-09-28T00:38:22.640Z,70.00
2018-09-28T00:38:53.710Z,70.00
2018-09-28T00:39:24.756Z,70.00
2018-09-28T00:39:55.803Z,70.00
2018-09-28T00:40:26.847Z,69.90
2018-09-28T00:40:57.883Z,69.90
2018-09-28T00:41:28.934Z,69.90
2018-09-28T00:41:59.986Z,69.90
2018-09-28T00:42:31.035Z,69.90
2018-09-28T00:43:02.078Z,69.90
2018-09-28T00:43:33.129Z,69.90
2018-09-28T00:44:04.199Z,69.90
2018-09-28T00:44:35.329Z,69.80
2018-09-28T00:45:06.352Z,69.90
2018-09-28T00:45:37.392Z,69.90
2018-09-28T00:46:08.440Z,69.80
2018-09-28T00:46:39.489Z,69.80
2018-09-28T00:47:10.565Z,69.70
2018-09-28T00:47:41.607Z,69.70
2018-09-28T00:48:12.660Z,69.70
2018-09-28T00:48:43.700Z,69.60
2018-09-28T00:49:14.756Z,69.70
2018-09-28T00:49:45.797Z,69.60
2018-09-28T00:50:16.843Z,69.60
2018-09-28T00:50:47.889Z,69.60
2018-09-28T00:51:18.936Z,69.50
2018-09-28T00:51:49.975Z,69.50
2018-09-28T00:52:21.038Z,69.50
2018-09-28T00:52:52.087Z,69.50
2018-09-28T00:53:23.131Z,69.50
2018-09-28T00:53:54.183Z,69.50
2018-09-28T00:54:25.219Z,69.50
2018-09-28T00:54:56.266Z,69.50
2018-09-28T00:55:27.320Z,69.50
2018-09-28T00:55:58.376Z,69.30
2018-09-28T00:56:29.414Z,69.50
2018-09-28T00:57:00.463Z,69.40
2018-09-28T00:57:31.513Z,69.40
2018-09-28T00:58:02.563Z,69.40
2018-09-28T00:58:33.602Z,69.40
2018-09-28T00:59:04.659Z,69.40
2018-09-28T00:59:35.706Z,69.40
2018-09-28T01:00:06.757Z,69.30
2018-09-28T01:00:37.807Z,69.30
2018-09-28T01:01:08.846Z,69.30
2018-09-28T01:01:39.891Z,69.30
2018-09-28T01:02:10.951Z,69.40
2018-09-28T01:02:42.262Z,69.40
2018-09-28T01:03:13.310Z,69.40
2018-09-28T01:03:44.359Z,69.40
2018-09-28T01:04:15.399Z,69.40
2018-09-28T01:04:46.451Z,69.40
2018-09-28T01:05:17.504Z,69.40
2018-09-28T01:05:48.546Z,69.40
2018-09-28T01:06:19.596Z,69.50
2018-09-28T01:06:50.643Z,69.50
2018-09-28T01:07:21.694Z,69.50
2018-09-28T01:07:52.743Z,69.60
2018-09-28T01:08:23.783Z,69.60
2018-09-28T01:08:54.830Z,69.60
2018-09-28T01:09:25.874Z,69.60
2018-09-28T01:09:56.924Z,70.40
2018-09-28T01:10:27.973Z,69.70
2018-09-28T01:10:59.019Z,69.60
2018-09-28T01:11:30.064Z,69.60
2018-09-28T01:12:01.103Z,69.70
2018-09-28T01:12:32.162Z,69.60
2018-09-28T01:13:03.203Z,69.70
2018-09-28T01:13:34.248Z,69.60
2018-09-28T01:14:05.431Z,69.60
2018-09-28T01:14:36.454Z,69.60
2018-09-28T01:15:07.500Z,69.60
2018-09-28T01:15:38.548Z,69.60
2018-09-28T01:16:09.620Z,69.60
2018-09-28T01:16:40.664Z,69.50
2018-09-28T01:17:11.703Z,69.50
2018-09-28T01:17:42.768Z,69.50
2018-09-28T01:18:13.810Z,69.50
2018-09-28T01:18:44.857Z,69.50
2018-09-28T01:19:15.898Z,69.40
2018-09-28T01:19:46.946Z,69.40
2018-09-28T01:20:17.991Z,69.40
2018-09-28T01:20:49.035Z,69.20
2018-09-28T01:21:20.079Z,69.20
2018-09-28T01:21:51.119Z,69.10
2018-09-28T01:22:22.155Z,69.00
2018-09-28T01:22:53.216Z,69.00
2018-09-28T01:23:24.245Z,68.50
2018-09-28T01:23:55.294Z,69.10
2018-09-28T01:24:26.338Z,69.00
2018-09-28T01:24:57.383Z,69.00
2018-09-28T01:25:28.440Z,69.00
2018-09-28T01:25:59.479Z,69.10
2018-09-28T01:26:30.523Z,69.10
2018-09-28T01:27:01.673Z,69.10
2018-09-28T01:27:32.711Z,69.10
2018-09-28T01:28:03.771Z,69.20
2018-09-28T01:28:34.819Z,69.10
2018-09-28T01:29:05.867Z,69.10
2018-09-28T01:29:36.913Z,69.10
2018-09-28T01:30:08.043Z,69.10
2018-09-28T01:30:39.091Z,69.10
2018-09-28T01:31:10.139Z,69.10
2018-09-28T01:31:41.186Z,69.10
2018-09-28T01:32:12.235Z,69.10
2018-09-28T01:32:43.299Z,69.00
2018-09-28T01:33:14.347Z,69.00
2018-09-28T01:33:45.396Z,69.00
2018-09-28T01:34:16.447Z,69.00
2018-09-28T01:34:47.487Z,69.00
2018-09-28T01:35:18.530Z,69.00
2018-09-28T01:35:49.575Z,69.00
2018-09-28T01:36:20.619Z,69.00
2018-09-28T01:36:51.667Z,69.10
2018-09-28T01:37:22.719Z,69.10
2018-09-28T01:37:53.784Z,69.10
2018-09-28T01:38:24.830Z,69.10
2018-09-28T01:38:55.875Z,69.10
2018-09-28T01:39:26.911Z,68.70
2018-09-28T01:39:57.955Z,69.20
2018-09-28T01:40:29.005Z,69.20
2018-09-28T01:41:00.124Z,69.20
2018-09-28T01:41:31.167Z,69.20
2018-09-28T01:42:02.216Z,69.20
2018-09-28T01:42:33.259Z,69.20
2018-09-28T01:43:04.315Z,69.20
2018-09-28T01:43:35.367Z,69.20
2018-09-28T01:44:06.407Z,69.10
2018-09-28T01:44:37.460Z,69.20
2018-09-28T01:45:08.502Z,69.20
2018-09-28T01:45:39.564Z,69.20
2018-09-28T01:46:10.616Z,69.20
2018-09-28T01:46:41.734Z,69.10
2018-09-28T01:47:12.783Z,69.20
2018-09-28T01:47:43.837Z,69.10
2018-09-28T01:48:14.891Z,69.20
2018-09-28T01:48:45.940Z,70.00
2018-09-28T01:49:16.984Z,69.20
2018-09-28T01:49:48.032Z,69.20
2018-09-28T01:50:19.123Z,69.10
2018-09-28T01:50:50.158Z,69.10
2018-09-28T01:51:21.202Z,69.10
2018-09-28T01:51:52.256Z,69.00
2018-09-28T01:52:23.290Z,69.00
2018-09-28T01:52:54.342Z,69.00
2018-09-28T01:53:25.386Z,69.00
2018-09-28T01:53:56.440Z,68.90
2018-09-28T01:54:27.487Z,68.90
2018-09-28T01:54:58.531Z,68.80
2018-09-28T01:55:29.579Z,68.80
2018-09-28T01:56:00.623Z,68.80
2018-09-28T01:56:31.679Z,68.80
2018-09-28T01:57:02.727Z,68.80
2018-09-28T01:57:33.772Z,68.80
2018-09-28T01:58:04.823Z,68.80
2018-09-28T01:58:35.868Z,68.80
2018-09-28T01:59:06.921Z,68.80
2018-09-28T01:59:37.967Z,68.80
2018-09-28T02:00:09.010Z,68.70
2018-09-28T02:00:40.059Z,68.70
2018-09-28T02:01:11.103Z,68.80
2018-09-28T02:01:42.154Z,68.70
2018-09-28T02:02:13.192Z,68.70
2018-09-28T02:02:44.235Z,68.70
2018-09-28T02:03:15.347Z,68.70
2018-09-28T02:03:46.387Z,68.70
2018-09-28T02:04:17.433Z,68.70
2018-09-28T02:04:48.515Z,68.70
2018-09-28T02:05:19.548Z,68.70
2018-09-28T02:05:50.628Z,68.70
2018-09-28T02:06:21.663Z,68.70
2018-09-28T02:06:52.707Z,68.70
2018-09-28T02:07:23.755Z,68.70
2018-09-28T02:07:54.808Z,68.70
2018-09-28T02:08:25.859Z,68.70
2018-09-28T02:08:56.911Z,68.70
2018-09-28T02:09:27.955Z,68.70
2018-09-28T02:09:58.996Z,68.70
2018-09-28T02:10:30.039Z,68.70
2018-09-28T02:11:01.100Z,68.80
2018-09-28T02:11:32.134Z,68.80
2018-09-28T02:12:03.188Z,68.80
2018-09-28T02:12:34.234Z,68.80
2018-09-28T02:13:05.291Z,68.80
2018-09-28T02:13:36.347Z,68.80
2018-09-28T02:14:07.390Z,68.80
2018-09-28T02:14:38.444Z,68.90
2018-09-28T02:15:09.493Z,68.90
2018-09-28T02:15:40.592Z,68.90
2018-09-28T02:16:11.595Z,68.90
2018-09-28T02:16:42.644Z,68.90
2018-09-28T02:17:13.683Z,68.90
2018-09-28T02:17:44.730Z,68.90
2018-09-28T02:18:15.792Z,68.80
2018-09-28T02:18:46.839Z,68.80
2018-09-28T02:19:17.891Z,68.80
2018-09-28T02:19:48.957Z,68.80
2018-09-28T02:20:19.995Z,69.60
2018-09-28T02:20:51.038Z,68.80
2018-09-28T02:21:22.089Z,68.80
2018-09-28T02:21:53.130Z,68.80
2018-09-28T02:22:24.179Z,68.80
2018-09-28T02:22:55.227Z,68.80
2018-09-28T02:23:26.279Z,68.80
2018-09-28T02:23:57.324Z,68.80
2018-09-28T02:24:28.368Z,68.80
2018-09-28T02:24:59.420Z,68.70
2018-09-28T02:25:30.458Z,68.70
2018-09-28T02:26:01.508Z,68.70
2018-09-28T02:26:32.553Z,68.70
2018-09-28T02:27:03.597Z,68.70
2018-09-28T02:27:34.713Z,68.70
2018-09-28T02:28:05.743Z,68.60
2018-09-28T02:28:36.818Z,68.60
2018-09-28T02:29:07.855Z,68.60
2018-09-28T02:29:38.894Z,68.60
2018-09-28T02:30:09.944Z,68.50
2018-09-28T02:30:40.993Z,68.50
2018-09-28T02:31:12.036Z,68.60
2018-09-28T02:31:43.096Z,68.50
2018-09-28T02:32:14.145Z,68.50
2018-09-28T02:32:45.183Z,68.50
2018-09-28T02:33:16.231Z,67.80
2018-09-28T02:33:47.285Z,68.50
2018-09-28T02:34:18.324Z,68.50
2018-09-28T02:34:49.423Z,68.50
2018-09-28T02:35:20.452Z,68.40
2018-09-28T02:35:51.549Z,68.40
2018-09-28T02:36:22.583Z,68.40
2018-09-28T02:36:53.627Z,68.70
2018-09-28T02:37:24.666Z,68.50
2018-09-28T02:37:55.707Z,68.50
2018-09-28T02:38:26.768Z,68.50
2018-09-28T02:38:57.815Z,68.40
2018-09-28T02:39:28.866Z,68.50
2018-09-28T02:39:59.914Z,68.40
2018-09-28T02:40:30.954Z,68.40
2018-09-28T02:41:02.000Z,68.40
2018-09-28T02:41:33.051Z,68.40
2018-09-28T02:42:04.094Z,68.40
2018-09-28T02:42:35.143Z,68.00
2018-09-28T02:43:06.198Z,68.50
2018-09-28T02:43:37.250Z,68.40
2018-09-28T02:44:08.291Z,68.50
2018-09-28T02:44:39.342Z,68.50
2018-09-28T02:45:10.383Z,68.90
2018-09-28T02:45:41.428Z,68.50
2018-09-28T02:46:12.470Z,68.50
2018-09-28T02:46:43.528Z,68.50
2018-09-28T02:47:14.572Z,68.50
2018-09-28T02:47:45.631Z,68.60
2018-09-28T02:48:16.669Z,68.60
2018-09-28T02:48:47.722Z,68.50
2018-09-28T02:49:18.767Z,68.50
2018-09-28T02:49:49.808Z,68.50
2018-09-28T02:50:20.847Z,68.50
2018-09-28T02:50:51.927Z,68.70
2018-09-28T02:51:22.942Z,68.50
2018-09-28T02:51:53.979Z,68.50
2018-09-28T02:52:25.038Z,68.50
2018-09-28T02:52:56.080Z,68.50
2018-09-28T02:53:27.127Z,68.50
2018-09-28T02:53:58.187Z,68.50
2018-09-28T02:54:29.232Z,68.50
2018-09-28T02:55:00.275Z,68.50
2018-09-28T02:55:31.327Z,68.50
2018-09-28T02:56:02.368Z,69.10
2018-09-28T02:56:33.415Z,68.50
2018-09-28T02:57:04.552Z,68.50
2018-09-28T02:57:35.520Z,69.20
2018-09-28T02:58:06.565Z,68.50
2018-09-28T02:58:37.606Z,68.50
2018-09-28T02:59:08.660Z,69.10
2018-09-28T02:59:39.748Z,69.10
2018-09-28T03:00:10.754Z,68.30
2018-09-28T03:00:41.792Z,69.10
2018-09-28T03:01:12.836Z,68.20
2018-09-28T03:01:43.884Z,68.40
2018-09-28T03:02:14.931Z,68.30
2018-09-28T03:02:45.976Z,68.30
2018-09-28T03:03:17.018Z,68.30
2018-09-28T03:03:48.112Z,68.30
2018-09-28T03:04:19.138Z,68.20
2018-09-28T03:04:50.178Z,68.20
2018-09-28T03:05:21.222Z,68.20
2018-09-28T03:05:52.275Z,68.20
2018-09-28T03:06:23.396Z,68.20
2018-09-28T03:06:54.477Z,68.20
2018-09-28T03:07:25.527Z,68.20
2018-09-28T03:07:56.572Z,68.10
2018-09-28T03:08:27.616Z,68.10
2018-09-28T03:08:58.643Z,68.10
2018-09-28T03:09:29.700Z,68.20
2018-09-28T03:10:00.747Z,68.20
2018-09-28T03:10:31.792Z,68.20
2018-09-28T03:11:02.838Z,68.10
2018-09-28T03:11:33.893Z,68.10
2018-09-28T03:12:04.938Z,68.20
2018-09-28T03:12:35.991Z,68.20
2018-09-28T03:13:07.030Z,68.10
2018-09-28T03:13:38.077Z,68.10
2018-09-28T03:14:09.144Z,68.10
2018-09-28T03:14:40.212Z,68.10
2018-09-28T03:15:11.247Z,68.10
2018-09-28T03:15:42.295Z,68.20
2018-09-28T03:16:13.338Z,68.20
2018-09-28T03:16:44.394Z,68.20
2018-09-28T03:17:15.434Z,68.20
2018-09-28T03:17:46.479Z,68.20
2018-09-28T03:18:17.532Z,68.20
2018-09-28T03:18:48.572Z,68.20
2018-09-28T03:19:19.633Z,68.20
2018-09-28T03:19:50.673Z,68.20
2018-09-28T03:20:21.728Z,68.20
2018-09-28T03:20:52.783Z,68.20
2018-09-28T03:21:23.843Z,68.20
2018-09-28T03:21:54.892Z,68.30
2018-09-28T03:22:25.931Z,68.20
2018-09-28T03:22:56.988Z,68.30
2018-09-28T03:23:28.028Z,68.30
2018-09-28T03:23:59.076Z,68.30
2018-09-28T03:24:30.135Z,68.30
2018-09-28T03:25:01.180Z,68.30
2018-09-28T03:25:32.223Z,68.30
2018-09-28T03:26:03.353Z,68.30
2018-09-28T03:26:34.371Z,68.30
2018-09-28T03:27:05.425Z,68.30
2018-09-28T03:27:36.469Z,68.30
2018-09-28T03:28:07.510Z,68.40
2018-09-28T03:28:38.562Z,68.30
2018-09-28T03:29:10.087Z,68.20
2018-09-28T03:29:41.136Z,68.30
2018-09-28T03:30:12.178Z,68.20
2018-09-28T03:30:43.224Z,68.20
2018-09-28T03:31:14.273Z,68.80
2018-09-28T03:31:45.307Z,67.60
2018-09-28T03:32:16.346Z,68.10
2018-09-28T03:32:47.395Z,68.10
2018-09-28T03:33:18.445Z,68.00
2018-09-28T03:33:49.483Z,68.00
2018-09-28T03:34:20.543Z,68.00
2018-09-28T03:34:51.591Z,68.00
2018-09-28T03:35:22.635Z,68.10
2018-09-28T03:35:53.685Z,68.10
2018-09-28T03:36:24.751Z,68.00
2018-09-28T03:36:55.803Z,68.00
2018-09-28T03:37:26.846Z,68.00
2018-09-28T03:37:57.887Z,68.00
2018-09-28T03:38:28.935Z,68.00
2018-09-28T03:38:59.977Z,68.00
2018-09-28T03:39:31.036Z,68.00
2018-09-28T03:40:02.076Z,68.00
2018-09-28T03:40:33.148Z,68.00
2018-09-28T03:41:04.169Z,68.00
2018-09-28T03:41:35.217Z,68.00
2018-09-28T03:42:06.258Z,67.90
2018-09-28T03:42:37.307Z,68.00
2018-09-28T03:43:08.352Z,68.00
2018-09-28T03:43:39.401Z,67.90
2018-09-28T03:44:10.443Z,68.00
2018-09-28T03:44:41.544Z,67.90
2018-09-28T03:45:12.588Z,67.90
2018-09-28T03:45:43.639Z,68.00
2018-09-28T03:46:14.687Z,68.00
2018-09-28T03:46:45.730Z,68.00
2018-09-28T03:47:16.777Z,67.80
2018-09-28T03:47:47.858Z,67.80
2018-09-28T03:48:18.920Z,67.90
2018-09-28T03:48:49.958Z,67.90
2018-09-28T03:49:21.011Z,68.00
2018-09-28T03:49:52.062Z,68.00
2018-09-28T03:50:23.107Z,68.00
2018-09-28T03:50:54.155Z,68.00
2018-09-28T03:51:25.208Z,67.90
2018-09-28T03:51:56.248Z,67.90
2018-09-28T03:52:27.293Z,68.00
2018-09-28T03:52:58.340Z,68.00
2018-09-28T03:53:29.387Z,68.00
2018-09-28T03:54:00.440Z,68.00
2018-09-28T03:54:31.566Z,68.00
2018-09-28T03:55:02.620Z,68.00
2018-09-28T03:55:33.664Z,68.10
2018-09-28T03:56:04.715Z,68.10
2018-09-28T03:56:35.751Z,68.00
2018-09-28T03:57:06.823Z,68.00
2018-09-28T03:57:37.871Z,68.00
2018-09-28T03:58:08.917Z,67.90
2018-09-28T03:58:40.158Z,67.80
2018-09-28T03:59:11.292Z,67.80
2018-09-28T03:59:42.292Z,67.80
2018-09-28T04:00:13.334Z,67.80
2018-09-28T04:00:44.391Z,67.80
2018-09-28T04:01:15.435Z,67.80
2018-09-28T04:01:46.482Z,67.70
2018-09-28T04:02:17.540Z,67.70
2018-09-28T04:02:48.698Z,67.60
2018-09-28T04:03:19.763Z,67.60
2018-09-28T04:03:50.851Z,67.50
2018-09-28T04:04:21.895Z,67.50
2018-09-28T04:04:52.948Z,67.50
2018-09-28T04:05:23.996Z,67.50
2018-09-28T04:05:55.042Z,67.60
2018-09-28T04:06:26.265Z,67.70
2018-09-28T04:06:57.307Z,67.70
2018-09-28T04:07:28.359Z,67.70
2018-09-28T04:07:59.402Z,67.80
2018-09-28T04:08:30.450Z,67.80
2018-09-28T04:09:01.512Z,67.80
2018-09-28T04:09:32.555Z,67.70
2018-09-28T04:10:03.614Z,68.00
2018-09-28T04:10:34.657Z,67.60
2018-09-28T04:11:05.711Z,67.50
2018-09-28T04:11:36.756Z,67.50
2018-09-28T04:12:07.803Z,67.50
2018-09-28T04:12:38.861Z,67.50
2018-09-28T04:13:09.912Z,67.40
2018-09-28T04:13:40.959Z,67.40
2018-09-28T04:14:12.008Z,67.40
2018-09-28T04:14:43.051Z,67.40
2018-09-28T04:15:14.158Z,67.40
2018-09-28T04:15:45.152Z,67.40
2018-09-28T04:16:16.199Z,67.30
2018-09-28T04:16:47.239Z,67.40
2018-09-28T04:17:18.292Z,67.30
2018-09-28T04:17:49.327Z,67.30
2018-09-28T04:18:20.375Z,67.30
2018-09-28T04:18:51.423Z,67.30
2018-09-28T04:19:22.471Z,67.30
2018-09-28T04:19:53.527Z,67.30
2018-09-28T04:20:24.598Z,67.70
2018-09-28T04:20:55.648Z,67.30
2018-09-28T04:21:26.691Z,67.30
2018-09-28T04:21:57.810Z,67.30
2018-09-28T04:22:28.789Z,67.30
2018-09-28T04:22:59.843Z,67.30
2018-09-28T04:23:30.898Z,67.30
2018-09-28T04:24:01.958Z,67.30
2018-09-28T04:24:32.996Z,67.40
2018-09-28T04:25:04.047Z,67.40
2018-09-28T04:25:35.095Z,67.40
2018-09-28T04:26:06.142Z,67.40
2018-09-28T04:26:37.194Z,67.40
2018-09-28T04:27:08.236Z,67.50
2018-09-28T04:27:39.323Z,67.50
2018-09-28T04:28:10.322Z,67.50
2018-09-28T04:28:41.376Z,67.50
2018-09-28T04:29:12.419Z,67.50
2018-09-28T04:29:43.471Z,68.40
2018-09-28T04:30:14.616Z,67.50
2018-09-28T04:30:45.663Z,67.50
2018-09-28T04:31:16.723Z,67.50
2018-09-28T04:31:47.769Z,67.50
2018-09-28T04:32:18.812Z,68.30
2018-09-28T04:32:50.379Z,67.50
2018-09-28T04:33:21.435Z,67.50
2018-09-28T04:33:52.475Z,67.50
2018-09-28T04:34:23.523Z,67.50
2018-09-28T04:34:54.563Z,67.50
2018-09-28T04:35:25.607Z,67.50
2018-09-28T04:35:56.664Z,67.50
2018-09-28T04:36:27.699Z,67.40
2018-09-28T04:36:58.738Z,67.40
2018-09-28T04:37:29.783Z,67.40
2018-09-28T04:38:00.826Z,67.50
2018-09-28T04:38:31.879Z,67.40
2018-09-28T04:39:02.928Z,67.40
2018-09-28T04:39:33.977Z,67.40
2018-09-28T04:40:05.039Z,67.40
2018-09-28T04:40:36.193Z,67.40
2018-09-28T04:41:07.322Z,67.30
2018-09-28T04:41:38.514Z,67.30
2018-09-28T04:42:09.550Z,67.20
2018-09-28T04:42:40.602Z,67.30
2018-09-28T04:43:11.640Z,67.20
2018-09-28T04:43:42.682Z,67.20
2018-09-28T04:44:13.766Z,67.10
2018-09-28T04:44:44.792Z,67.00
2018-09-28T04:45:15.923Z,66.90
2018-09-28T04:45:46.900Z,66.80
2018-09-28T04:46:17.966Z,67.70
2018-09-28T04:46:48.990Z,66.90
2018-09-28T04:47:20.048Z,66.90
2018-09-28T04:47:51.087Z,67.00
2018-09-28T04:48:22.132Z,67.00
2018-09-28T04:48:53.183Z,67.00
2018-09-28T04:49:24.236Z,67.00
2018-09-28T04:49:55.275Z,67.10
2018-09-28T04:50:26.335Z,67.10
2018-09-28T04:50:57.377Z,67.10
2018-09-28T04:51:28.419Z,67.10
2018-09-28T04:51:59.462Z,67.00
2018-09-28T04:52:30.507Z,67.00
2018-09-28T04:53:01.552Z,67.10
2018-09-28T04:53:32.606Z,67.00
2018-09-28T04:54:03.650Z,67.00
2018-09-28T04:54:34.693Z,66.90
2018-09-28T04:55:05.743Z,66.90
2018-09-28T04:55:36.799Z,67.80
2018-09-28T04:56:07.875Z,67.00
2018-09-28T04:56:38.907Z,67.00
2018-09-28T04:57:09.954Z,67.00
2018-09-28T04:57:40.994Z,67.00
2018-09-28T04:58:12.039Z,67.00
2018-09-28T04:58:43.087Z,67.00
2018-09-28T04:59:14.139Z,67.00
2018-09-28T04:59:45.191Z,67.00
2018-09-28T05:00:16.231Z,67.00
2018-09-28T05:00:47.290Z,67.10
2018-09-28T05:01:18.326Z,67.10
2018-09-28T05:01:49.380Z,67.10
2018-09-28T05:02:20.423Z,67.10
2018-09-28T05:02:51.471Z,67.10
2018-09-28T05:03:22.523Z,67.20
2018-09-28T05:03:53.571Z,67.10
2018-09-28T05:04:24.614Z,67.10
2018-09-28T05:04:55.684Z,67.10
2018-09-28T05:05:26.757Z,67.10
2018-09-28T05:05:57.843Z,67.10
2018-09-28T05:06:28.891Z,67.10
2018-09-28T05:06:59.946Z,67.10
2018-09-28T05:07:31.003Z,67.10
2018-09-28T05:08:02.052Z,67.10
2018-09-28T05:08:33.096Z,67.10
2018-09-28T05:09:04.145Z,67.10
2018-09-28T05:09:35.183Z,67.10
2018-09-28T05:10:06.233Z,67.10
2018-09-28T05:10:37.291Z,67.00
2018-09-28T05:11:08.344Z,67.00
2018-09-28T05:11:39.389Z,67.00
2018-09-28T05:12:10.439Z,67.00
2018-09-28T05:12:41.492Z,67.00
2018-09-28T05:13:12.660Z,67.00
2018-09-28T05:13:43.582Z,67.00
2018-09-28T05:14:14.638Z,67.00
2018-09-28T05:14:45.688Z,66.90
2018-09-28T05:15:16.732Z,66.90
2018-09-28T05:15:47.787Z,67.00
2018-09-28T05:16:18.835Z,66.90
2018-09-28T05:16:49.890Z,66.90
2018-09-28T05:17:20.937Z,66.90
2018-09-28T05:17:51.979Z,66.90
2018-09-28T05:18:23.023Z,67.00
2018-09-28T05:18:54.067Z,66.90
2018-09-28T05:19:25.175Z,66.80
2018-09-28T05:19:56.165Z,66.80
2018-09-28T05:20:27.208Z,66.80
2018-09-28T05:20:58.271Z,66.80
2018-09-28T05:21:29.315Z,66.80
2018-09-28T05:22:00.366Z,66.80
2018-09-28T05:22:31.415Z,66.80
2018-09-28T05:23:02.468Z,66.80
2018-09-28T05:23:33.519Z,66.80
2018-09-28T05:24:04.646Z,66.80
2018-09-28T05:24:35.695Z,66.80
2018-09-28T05:25:06.765Z,66.80
2018-09-28T05:25:37.818Z,66.80
2018-09-28T05:26:08.918Z,66.80
2018-09-28T05:26:39.967Z,66.80
2018-09-28T05:27:11.019Z,66.80
2018-09-28T05:27:42.069Z,66.70
2018-09-28T05:28:13.111Z,66.70
2018-09-28T05:28:44.159Z,66.70
2018-09-28T05:29:15.206Z,66.80
2018-09-28T05:29:46.251Z,66.80
2018-09-28T05:30:17.659Z,66.80
2018-09-28T05:30:53.960Z,66.80
2018-09-28T05:31:19.907Z,66.80
2018-09-28T05:31:51.001Z,66.80
2018-09-28T05:32:22.040Z,66.80
2018-09-28T05:32:53.065Z,66.80
2018-09-28T05:33:24.029Z,66.80
2018-09-28T05:33:55.067Z,67.20
2018-09-28T05:34:26.110Z,66.90
2018-09-28T05:34:57.155Z,66.80
2018-09-28T05:35:28.207Z,66.80
2018-09-28T05:35:59.271Z,66.90
2018-09-28T05:36:30.314Z,67.00
2018-09-28T05:37:01.360Z,66.90
2018-09-28T05:37:32.411Z,67.00
2018-09-28T05:38:03.454Z,67.00
2018-09-28T05:38:34.507Z,66.90
2018-09-28T05:39:05.552Z,67.00
2018-09-28T05:39:36.612Z,67.00
2018-09-28T05:40:07.660Z,67.00
2018-09-28T05:40:38.708Z,66.90
2018-09-28T05:41:09.763Z,67.00
2018-09-28T05:41:40.804Z,67.00
2018-09-28T05:42:11.852Z,67.00
2018-09-28T05:42:42.905Z,67.00
2018-09-28T05:43:13.951Z,66.90
2018-09-28T05:43:45.124Z,66.90
2018-09-28T05:44:16.102Z,66.90
2018-09-28T05:44:47.149Z,66.80
2018-09-28T05:45:18.205Z,67.70
2018-09-28T05:45:49.260Z,66.80
2018-09-28T05:46:20.325Z,66.80
2018-09-28T05:46:51.347Z,66.80
2018-09-28T05:47:22.399Z,66.80
2018-09-28T05:47:53.443Z,66.80
2018-09-28T05:48:24.495Z,66.80
2018-09-28T05:48:55.546Z,66.60
2018-09-28T05:49:26.579Z,66.40
2018-09-28T05:49:57.624Z,66.40
2018-09-28T05:50:28.670Z,67.10
2018-09-28T05:50:59.820Z,66.40
2018-09-28T05:51:30.932Z,66.30
2018-09-28T05:52:01.918Z,66.40
2018-09-28T05:52:32.963Z,66.40
2018-09-28T05:53:04.013Z,66.70
2018-09-28T05:53:35.049Z,66.40
2018-09-28T05:54:06.096Z,66.40
2018-09-28T05:54:37.143Z,66.50
2018-09-28T05:55:08.186Z,66.50
2018-09-28T05:55:39.253Z,66.50
2018-09-28T05:56:10.312Z,66.50
2018-09-28T05:56:41.360Z,66.50
2018-09-28T05:57:12.404Z,66.50
2018-09-28T05:57:43.451Z,66.40
2018-09-28T05:58:14.492Z,66.50
2018-09-28T05:58:45.539Z,66.50
2018-09-28T05:59:16.604Z,66.50
2018-09-28T05:59:47.636Z,66.40
2018-09-28T06:00:18.679Z,66.40
2018-09-28T06:00:49.724Z,66.40
2018-09-28T06:01:20.779Z,66.50
2018-09-28T06:01:51.826Z,66.50
2018-09-28T06:02:22.875Z,66.40
2018-09-28T06:02:53.919Z,66.40
2018-09-28T06:03:24.990Z,66.40
2018-09-28T06:03:56.032Z,66.50
2018-09-28T06:04:27.093Z,66.50
2018-09-28T06:04:58.136Z,66.50
2018-09-28T06:05:29.277Z,66.50
2018-09-28T06:06:00.243Z,66.50
2018-09-28T06:06:31.290Z,66.50
2018-09-28T06:07:02.330Z,66.50
2018-09-28T06:07:33.371Z,66.50
2018-09-28T06:08:04.424Z,66.50
2018-09-28T06:08:35.476Z,66.50
2018-09-28T06:09:06.529Z,66.50
2018-09-28T06:09:37.576Z,66.60
2018-09-28T06:10:08.620Z,66.60
2018-09-28T06:10:39.681Z,67.40
2018-09-28T06:11:10.731Z,66.60
2018-09-28T06:11:41.779Z,66.60
2018-09-28T06:12:12.819Z,66.60
2018-09-28T06:12:43.868Z,66.60
2018-09-28T06:13:14.914Z,66.70
2018-09-28T06:13:45.963Z,66.70
2018-09-28T06:14:17.020Z,66.70
2018-09-28T06:14:48.068Z,66.70
2018-09-28T06:15:19.108Z,66.70
2018-09-28T06:15:50.158Z,66.70
2018-09-28T06:16:21.221Z,66.70
2018-09-28T06:16:52.272Z,66.60
2018-09-28T06:17:23.365Z,66.60
2018-09-28T06:17:54.402Z,66.60
2018-09-28T06:18:25.452Z,66.60
2018-09-28T06:18:56.536Z,66.60
2018-09-28T06:19:27.503Z,66.60
2018-09-28T06:19:58.557Z,66.50
2018-09-28T06:20:29.587Z,66.50
2018-09-28T06:21:00.655Z,66.60
2018-09-28T06:21:31.707Z,66.50
2018-09-28T06:22:02.755Z,66.50
2018-09-28T06:22:33.799Z,66.40
2018-09-28T06:23:04.848Z,66.40
2018-09-28T06:23:35.892Z,66.40
2018-09-28T06:24:06.951Z,66.40
2018-09-28T06:24:37.989Z,66.40
2018-09-28T06:25:09.031Z,66.50
2018-09-28T06:25:40.076Z,66.50
2018-09-28T06:26:11.124Z,66.40
2018-09-28T06:26:42.179Z,66.40
2018-09-28T06:27:13.219Z,66.40
2018-09-28T06:27:44.259Z,66.40
2018-09-28T06:28:15.303Z,66.20
2018-09-28T06:28:46.361Z,66.20
2018-09-28T06:29:17.403Z,66.20
2018-09-28T06:29:48.511Z,66.10
2018-09-28T06:30:19.506Z,66.10
2018-09-28T06:30:50.543Z,66.10
2018-09-28T06:31:21.619Z,66.10
2018-09-28T06:31:52.679Z,66.20
2018-09-28T06:32:23.746Z,66.10
2018-09-28T06:32:54.803Z,66.90
2018-09-28T06:33:25.843Z,66.20
2018-09-28T06:33:56.886Z,66.20
2018-09-28T06:34:27.940Z,66.30
2018-09-28T06:34:58.984Z,66.30
2018-09-28T06:35:30.047Z,66.20
2018-09-28T06:36:01.124Z,66.20
2018-09-28T06:36:32.127Z,66.20
2018-09-28T06:37:03.162Z,66.20
2018-09-28T06:37:34.223Z,66.20
2018-09-28T06:38:05.273Z,66.30
2018-09-28T06:38:36.319Z,66.20
2018-09-28T06:39:07.367Z,66.20
2018-09-28T06:39:38.413Z,66.20